Time;durP1;ratioP1;P1;durP2;ratioP2;P2;SDS_P1;SDS_P2;PMS_P1;PMS_P2;Temp;Humidity;BMP_temperature;BMP_pressure;BME280_temperature;BME280_humidity;BME280_pressure;Samples;Min_cycle;Max_cycle;Signal;HPM_P1;HPM_P2
2022/05/09 00:02:15;;;;;;;4.97;2.60;;;;;;;6.10;91.24;102851.75;4995201;28;20395;-48
2022/05/09 00:04:41;;;;;;;4.47;2.65;;;;;;;6.00;90.58;102848.94;4995074;28;20235;-49
2022/05/09 00:07:06;;;;;;;8.25;2.95;;;;;;;5.90;90.11;102854.13;4977858;28;20217;-48
2022/05/09 00:09:32;;;;;;;5.22;2.65;;;;;;;5.86;91.46;102846.97;4994152;28;20224;-49
2022/05/09 00:11:58;;;;;;;5.82;3.30;;;;;;;5.64;91.99;102860.78;4995162;28;20161;-50
2022/05/09 00:14:24;;;;;;;5.50;2.92;;;;;;;5.62;92.13;102846.59;4994992;28;20554;-49
2022/05/09 00:16:51;;;;;;;8.05;3.17;;;;;;;5.64;92.98;102855.47;4994927;28;20166;-48
2022/05/09 00:19:20;;;;;;;6.65;3.50;;;;;;;5.55;93.10;102838.53;4994732;28;20264;-49
2022/05/09 00:21:47;;;;;;;5.97;3.00;;;;;;;5.46;93.61;102845.47;4994470;28;20165;-49
2022/05/09 00:24:14;;;;;;;8.50;4.07;;;;;;;5.43;94.00;102843.66;4994475;28;20209;-49
2022/05/09 00:26:46;;;;;;;5.72;2.95;;;;;;;5.26;94.24;102847.81;4994417;28;20272;-50
2022/05/09 00:29:13;;;;;;;6.97;3.55;;;;;;;5.21;95.27;102845.09;4976515;28;20165;-51
2022/05/09 00:31:40;;;;;;;8.73;3.40;;;;;;;5.28;95.38;102841.66;4976840;28;20734;-49
2022/05/09 00:34:07;;;;;;;6.72;3.60;;;;;;;5.29;95.73;102858.47;4994059;28;20593;-48
2022/05/09 00:36:32;;;;;;;5.57;3.22;;;;;;;5.42;96.27;102851.59;4993488;28;20648;-47
2022/05/09 00:38:59;;;;;;;4.45;2.38;;;;;;;5.41;96.21;102850.72;4993070;28;20243;-51
2022/05/09 00:41:34;;;;;;;7.32;2.95;;;;;;;5.40;96.14;102846.28;4993693;28;20224;-51
2022/05/09 00:44:26;;;;;;;6.43;2.80;;;;;;;5.50;96.12;102848.19;4993381;28;20270;-50
2022/05/09 00:46:53;;;;;;;4.00;2.70;;;;;;;5.51;95.87;102852.66;4993841;28;20555;-49
2022/05/09 00:49:40;;;;;;;8.50;2.85;;;;;;;5.28;94.69;102852.28;4992542;28;20177;-50
2022/05/09 00:52:29;;;;;;;6.40;2.97;;;;;;;5.26;94.43;102854.00;4974613;28;20505;-47
2022/05/09 00:55:06;;;;;;;5.75;3.17;;;;;;;5.42;94.13;102848.94;4992650;28;20181;-49
2022/05/09 00:57:46;;;;;;;4.38;2.63;;;;;;;5.34;93.79;102849.72;4993019;28;20166;-50
2022/05/09 01:00:16;;;;;;;3.53;2.38;;;;;;;5.43;94.30;102842.78;4974859;28;20193;-47
2022/05/09 01:02:45;;;;;;;5.38;2.38;;;;;;;5.52;93.80;102849.09;4992447;28;20204;-50
2022/05/09 01:05:12;;;;;;;3.47;2.33;;;;;;;5.51;93.54;102844.69;4992943;28;20632;-48
2022/05/09 01:07:39;;;;;;;9.15;2.75;;;;;;;5.46;93.05;102849.00;4992375;28;20235;-46
2022/05/09 01:10:10;;;;;;;6.03;2.85;;;;;;;5.49;93.32;102851.75;4991694;28;20551;-44
2022/05/09 01:12:37;;;;;;;6.55;2.70;;;;;;;5.20;92.55;102848.59;4992403;28;20181;-44
2022/05/09 01:15:07;;;;;;;4.18;2.45;;;;;;;5.07;93.46;102852.84;4991048;28;20200;-43
2022/05/09 01:17:34;;;;;;;6.35;3.08;;;;;;;4.82;94.70;102839.97;4985912;28;20170;-44
2022/05/09 01:20:01;;;;;;;5.13;2.75;;;;;;;4.83;95.73;102841.75;4954424;28;20285;-46
2022/05/09 01:22:31;;;;;;;4.55;2.65;;;;;;;4.77;96.92;102842.56;4990170;28;20178;-45
2022/05/09 01:25:02;;;;;;;5.22;2.88;;;;;;;4.92;97.89;102839.28;4991444;28;20522;-44
2022/05/09 01:27:32;;;;;;;6.32;2.85;;;;;;;5.08;97.54;102851.06;4984603;28;20210;-44
2022/05/09 01:30:03;;;;;;;5.57;2.60;;;;;;;5.14;97.41;102846.75;4985264;28;20205;-44
2022/05/09 01:32:47;;;;;;;5.07;2.95;;;;;;;5.03;96.93;102837.72;4991545;28;20169;-45
2022/05/09 01:35:14;;;;;;;6.60;3.17;;;;;;;5.17;96.83;102843.25;4991488;28;20173;-46
2022/05/09 01:37:43;;;;;;;4.82;2.80;;;;;;;5.16;96.53;102839.69;4991980;28;20184;-44
2022/05/09 01:40:10;;;;;;;4.63;2.53;;;;;;;5.19;95.79;102844.16;4991342;28;20201;-46
2022/05/09 01:42:36;;;;;;;4.45;2.67;;;;;;;5.23;95.65;102845.13;4991418;28;20166;-46
2022/05/09 01:45:04;;;;;;;6.22;2.70;;;;;;;5.15;95.08;102837.88;4991674;28;20212;-44
2022/05/09 01:50:15;;;;;;;6.60;2.75;;;;;;;5.25;94.84;102844.28;4991234;28;20290;-43
2022/05/09 01:52:41;;;;;;;4.32;2.30;;;;;;;5.26;94.32;102843.38;4991646;28;20193;-44
2022/05/09 01:55:07;;;;;;;4.18;2.38;;;;;;;5.28;94.27;102841.66;4991504;28;20268;-45
2022/05/09 01:57:32;;;;;;;6.93;3.13;;;;;;;5.11;93.63;102833.38;4991716;28;20166;-45
2022/05/09 01:59:58;;;;;;;6.65;2.55;;;;;;;4.77;93.75;102837.25;4973966;28;20201;-44
2022/05/09 02:02:24;;;;;;;5.25;2.60;;;;;;;4.73;94.68;102851.34;4990154;28;20220;-44
2022/05/09 02:04:49;;;;;;;3.53;2.72;;;;;;;4.87;95.38;102836.53;4991124;28;20228;-48
2022/05/09 02:07:16;;;;;;;4.53;2.45;;;;;;;4.95;95.29;102839.31;4991590;28;20632;-45
2022/05/09 02:09:45;;;;;;;6.40;2.80;;;;;;;4.82;94.56;102830.25;4991321;28;20224;-45
2022/05/09 02:12:12;;;;;;;4.25;2.58;;;;;;;4.63;94.82;102842.28;4991335;28;20220;-49
2022/05/09 02:14:37;;;;;;;3.42;2.35;;;;;;;4.77;95.04;102842.56;4974275;28;20228;-45
2022/05/09 02:17:08;;;;;;;4.82;2.58;;;;;;;4.57;94.64;102842.19;4991316;28;20166;-46
2022/05/09 02:19:34;;;;;;;5.70;3.00;;;;;;;4.55;95.34;102835.97;4991074;28;20161;-48
2022/05/09 02:22:00;;;;;;;5.03;2.58;;;;;;;4.54;95.96;102843.00;4973825;28;20546;-45
2022/05/09 02:24:28;;;;;;;4.30;2.55;;;;;;;4.60;96.31;102838.69;4974086;28;20166;-48
2022/05/09 02:26:55;;;;;;;3.53;2.65;;;;;;;4.34;95.98;102847.94;4991277;28;20345;-45
2022/05/09 02:29:20;;;;;;;6.25;2.70;;;;;;;4.49;96.31;102849.09;4991050;28;20177;-47
2022/05/09 02:31:46;;;;;;;6.80;2.92;;;;;;;4.39;96.54;102840.06;4991388;28;20170;-45
2022/05/09 02:34:12;;;;;;;6.30;2.80;;;;;;;4.27;96.59;102843.38;4991160;28;20729;-46
2022/05/09 02:36:38;;;;;;;5.15;2.70;;;;;;;4.27;97.41;102843.38;4991261;28;20265;-47
2022/05/09 02:39:04;;;;;;;3.45;2.85;;;;;;;4.40;97.81;102839.19;4990661;28;20316;-48
2022/05/09 02:41:30;;;;;;;2.92;2.58;;;;;;;4.50;97.98;102840.25;4991358;28;20212;-45
2022/05/09 02:43:55;;;;;;;4.35;2.83;;;;;;;4.59;97.66;102839.53;4991338;28;20184;-44
2022/05/09 02:46:21;;;;;;;4.43;2.88;;;;;;;4.58;97.34;102845.72;4991013;28;20609;-45
2022/05/09 02:48:46;;;;;;;4.45;2.17;;;;;;;4.65;97.20;102847.63;4991033;28;20551;-46
2022/05/09 02:51:13;;;;;;;3.90;2.22;;;;;;;4.66;96.59;102842.34;4990806;28;20262;-43
2022/05/09 02:53:39;;;;;;;6.55;2.90;;;;;;;4.52;96.08;102841.19;4990652;28;20190;-45
2022/05/09 02:56:05;;;;;;;4.20;2.97;;;;;;;4.54;95.90;102855.38;4991046;28;20256;-47
2022/05/09 02:58:31;;;;;;;5.47;3.03;;;;;;;4.57;95.56;102855.47;4990963;28;20548;-44
2022/05/09 03:00:57;;;;;;;6.20;2.75;;;;;;;4.34;95.31;102839.06;4991233;28;20767;-48
2022/05/09 03:06:06;;;;;;;3.83;2.63;;;;;;;4.42;95.09;102845.44;4990960;28;20177;-43
2022/05/09 03:08:32;;;;;;;3.50;3.10;;;;;;;4.31;95.17;102844.34;4990637;28;20204;-43
2022/05/09 03:10:57;;;;;;;3.85;2.83;;;;;;;4.42;95.42;102845.44;4991107;28;20205;-47
2022/05/09 03:13:23;;;;;;;4.35;3.10;;;;;;;4.52;95.25;102843.84;4991011;28;20520;-43
2022/05/09 03:15:49;;;;;;;3.58;3.08;;;;;;;4.31;94.74;102847.00;4990590;28;20487;-46
2022/05/09 03:18:18;;;;;;;4.90;3.25;;;;;;;4.21;95.49;102847.66;4994479;28;20243;-45
2022/05/09 03:20:44;;;;;;;3.80;2.83;;;;;;;4.35;95.88;102851.47;4985643;28;20579;-44
2022/05/09 03:23:09;;;;;;;4.70;3.08;;;;;;;4.33;95.75;102850.56;4994405;28;20172;-45
2022/05/09 03:25:36;;;;;;;4.50;3.13;;;;;;;4.36;95.73;102847.06;4994043;28;20162;-45
2022/05/09 03:28:03;;;;;;;5.13;3.05;;;;;;;4.03;95.68;102854.38;4987527;28;20265;-44
2022/05/09 03:30:30;;;;;;;5.07;3.60;;;;;;;4.01;96.45;102857.84;4992681;28;20236;-46
2022/05/09 03:32:55;;;;;;;4.10;3.25;;;;;;;4.01;96.69;102853.44;4993887;28;20253;-44
2022/05/09 03:35:21;;;;;;;5.15;3.30;;;;;;;4.10;97.00;102858.94;4994260;28;20639;-47
2022/05/09 03:37:47;;;;;;;9.13;3.22;;;;;;;4.04;96.86;102850.84;4993810;28;20169;-46
2022/05/09 03:40:13;;;;;;;5.07;3.20;;;;;;;4.16;97.27;102858.19;4993567;28;20296;-48
2022/05/09 03:42:39;;;;;;;4.43;2.95;;;;;;;4.17;97.06;102853.75;4994023;28;20177;-46
2022/05/09 03:45:05;;;;;;;3.72;3.10;;;;;;;4.14;96.79;102849.28;4993806;28;20236;-49
2022/05/09 03:47:31;;;;;;;5.45;4.00;;;;;;;4.19;96.81;102854.69;4993713;28;20699;-46
2022/05/09 03:49:57;;;;;;;5.05;3.58;;;;;;;4.21;96.80;102848.53;4993460;28;20288;-43
2022/05/09 03:52:23;;;;;;;5.95;3.65;;;;;;;4.29;96.79;102835.44;4993483;28;20236;-44
2022/05/09 03:54:49;;;;;;;5.43;3.92;;;;;;;4.25;96.29;102852.16;4993703;28;20564;-45
2022/05/09 03:57:17;;;;;;;5.00;3.58;;;;;;;4.32;96.24;102843.47;4976115;28;20165;-48
2022/05/09 03:59:45;;;;;;;4.97;3.83;;;;;;;4.36;96.21;102841.78;4993453;28;20270;-45
2022/05/09 04:02:11;;;;;;;5.47;4.00;;;;;;;4.27;95.60;102842.47;4993551;28;20165;-45
2022/05/09 04:04:36;;;;;;;6.40;4.00;;;;;;;4.26;96.07;102844.25;4993955;28;20257;-45
2022/05/09 04:07:02;;;;;;;5.95;3.78;;;;;;;4.23;96.58;102852.13;4993221;28;20680;-46
2022/05/09 04:09:27;;;;;;;6.60;4.30;;;;;;;4.20;97.18;102851.16;4993556;28;20162;-46
2022/05/09 04:11:52;;;;;;;6.10;3.78;;;;;;;4.36;97.41;102845.31;4992422;28;20232;-45
2022/05/09 04:16:49;;;;;;;5.15;3.97;;;;;;;4.43;97.41;102841.91;4993243;28;20648;-47
2022/05/09 04:17:03;;;;;;;5.82;4.20;;;;;;;4.47;97.17;102849.06;4993035;28;20166;-44
2022/05/09 04:19:33;;;;;;;7.57;4.57;;;;;;;4.52;97.24;102852.69;4993021;28;20157;-46
2022/05/09 04:22:02;;;;;;;6.70;4.70;;;;;;;4.65;97.19;102842.31;4993386;28;20171;-44
2022/05/09 04:24:28;;;;;;;5.70;4.20;;;;;;;4.63;96.95;102841.41;4993192;28;20172;-44
2022/05/09 04:26:53;;;;;;;7.00;4.22;;;;;;;4.75;96.93;102838.97;4993069;28;20573;-43
2022/05/09 04:29:19;;;;;;;8.18;4.88;;;;;;;4.76;96.99;102830.13;4993282;28;20169;-46
2022/05/09 04:31:45;;;;;;;5.70;4.30;;;;;;;4.86;96.91;102839.19;4993159;28;20177;-48
2022/05/09 04:34:10;;;;;;;5.85;4.30;;;;;;;4.88;97.11;102840.09;4993382;28;20185;-44
2022/05/09 04:36:38;;;;;;;8.15;4.85;;;;;;;5.01;97.60;102838.53;4993158;28;20554;-44
2022/05/09 04:39:07;;;;;;;8.07;4.43;;;;;;;5.13;97.70;102838.75;4993201;28;20186;-48
2022/05/09 04:41:33;;;;;;;8.27;4.50;;;;;;;5.29;97.85;102840.78;4993067;28;20229;-45
2022/05/09 04:43:59;;;;;;;7.28;4.43;;;;;;;5.48;98.41;102841.94;4993350;28;20170;-45
2022/05/09 04:46:26;;;;;;;8.95;4.72;;;;;;;5.64;98.13;102853.75;4993154;28;20165;-45
2022/05/09 04:48:51;;;;;;;9.30;5.25;;;;;;;5.81;98.14;102847.75;4992702;28;20802;-45
2022/05/09 04:51:17;;;;;;;9.25;3.65;;;;;;;6.10;98.05;102850.81;4993146;28;20201;-44
2022/05/09 04:53:44;;;;;;;8.23;4.53;;;;;;;6.38;97.83;102849.41;4992634;28;20237;-43
2022/05/09 04:56:10;;;;;;;8.40;4.07;;;;;;;6.57;97.30;102837.19;4975676;28;20645;-44
2022/05/09 04:58:35;;;;;;;11.73;4.22;;;;;;;6.80;97.10;102834.78;4992959;28;20170;-46
2022/05/09 05:01:01;;;;;;;6.70;4.07;;;;;;;7.05;95.90;102849.22;4992477;28;20244;-45
2022/05/09 05:03:27;;;;;;;5.55;3.60;;;;;;;7.29;95.21;102848.53;4992799;28;20213;-45
2022/05/09 05:05:53;;;;;;;7.00;3.90;;;;;;;7.55;94.10;102848.72;4992503;28;20247;-45
2022/05/09 05:08:20;;;;;;;7.30;3.70;;;;;;;7.82;92.61;102850.66;4992476;28;20283;-44
2022/05/09 05:10:52;;;;;;;9.73;3.75;;;;;;;8.00;91.41;102847.22;4992410;28;20567;-45
2022/05/09 05:13:20;;;;;;;8.07;3.90;;;;;;;8.27;90.11;102850.00;4992573;28;20559;-49
2022/05/09 05:15:47;;;;;;;8.35;3.55;;;;;;;8.32;88.93;102853.56;4992627;28;20188;-44
2022/05/09 05:18:26;;;;;;;9.95;3.35;;;;;;;8.54;88.64;102847.44;4992454;28;20185;-45
2022/05/09 05:20:52;;;;;;;5.78;3.10;;;;;;;8.64;88.03;102851.03;4992420;28;20714;-48
2022/05/09 05:23:18;;;;;;;10.38;3.28;;;;;;;8.76;87.50;102840.34;4992241;28;20257;-44
2022/05/09 05:25:45;;;;;;;8.07;3.45;;;;;;;8.95;87.22;102845.72;4992660;28;20591;-45
2022/05/09 05:28:12;;;;;;;11.43;3.10;;;;;;;8.93;86.60;102847.50;4992280;28;20589;-49
2022/05/09 05:30:38;;;;;;;7.95;3.20;;;;;;;9.10;86.20;102843.06;4992113;28;20197;-46
2022/05/09 05:33:04;;;;;;;5.45;3.10;;;;;;;9.36;85.06;102852.84;4992302;28;20196;-46
2022/05/09 05:35:30;;;;;;;11.27;3.67;;;;;;;9.35;83.92;102849.28;4991878;28;20264;-49
2022/05/09 05:37:56;;;;;;;7.30;3.38;;;;;;;9.56;83.44;102845.72;4974349;28;20165;-45
2022/05/09 05:40:22;;;;;;;8.63;3.28;;;;;;;9.68;82.20;102842.09;4991542;28;20197;-46
2022/05/09 05:42:48;;;;;;;6.85;3.20;;;;;;;9.89;80.58;102841.19;4991970;28;20621;-49
2022/05/09 05:45:16;;;;;;;5.97;2.72;;;;;;;10.06;79.50;102844.69;4991054;28;20196;-50
2022/05/09 05:47:44;;;;;;;6.82;2.38;;;;;;;10.41;77.98;102842.78;4991364;28;20192;-46
2022/05/09 05:50:12;;;;;;;7.57;2.60;;;;;;;10.58;76.38;102835.50;4991526;28;20205;-47
2022/05/09 05:52:37;;;;;;;7.78;2.90;;;;;;;10.74;75.16;102836.34;4991460;28;20165;-46
2022/05/09 05:55:03;;;;;;;7.78;2.78;;;;;;;11.00;73.59;102841.50;4991870;28;20188;-47
2022/05/09 05:57:34;;;;;;;8.30;2.65;;;;;;;11.21;72.24;102828.81;4991780;28;20174;-47
2022/05/09 06:00:05;;;;;;;8.00;2.78;;;;;;;11.52;70.88;102832.09;4991075;28;20200;-43
2022/05/09 06:02:30;;;;;;;8.05;3.10;;;;;;;11.37;69.55;102826.88;4991630;28;20648;-44
2022/05/09 06:04:56;;;;;;;6.85;2.58;;;;;;;11.65;68.31;102833.75;4991506;28;20176;-44
2022/05/09 06:07:22;;;;;;;10.60;2.60;;;;;;;11.61;67.86;102834.69;4991911;28;20255;-43
2022/05/09 06:09:50;;;;;;;8.35;2.83;;;;;;;11.85;67.22;102844.28;4991311;28;20204;-45
2022/05/09 06:12:17;;;;;;;9.07;2.72;;;;;;;11.66;66.96;102831.97;4991731;28;20170;-46
2022/05/09 06:14:43;;;;;;;5.47;2.13;;;;;;;12.25;66.62;102833.09;4991423;28;20544;-45
2022/05/09 06:17:10;;;;;;;5.72;2.80;;;;;;;12.15;65.88;102826.91;4991834;28;20166;-43
2022/05/09 06:19:36;;;;;;;6.25;2.38;;;;;;;12.01;66.03;102836.97;4991594;28;20238;-47
2022/05/09 06:22:03;;;;;;;8.57;2.70;;;;;;;12.23;67.17;102836.72;4990218;28;20180;-45
2022/05/09 06:24:29;;;;;;;8.70;2.35;;;;;;;12.30;66.33;102838.41;4991508;28;20243;-45
2022/05/09 06:26:55;;;;;;;7.05;2.47;;;;;;;12.29;66.00;102832.13;4991288;28;20558;-43
2022/05/09 06:29:21;;;;;;;10.27;2.83;;;;;;;12.47;65.81;102819.34;4991395;28;20640;-45
2022/05/09 06:31:46;;;;;;;7.60;2.30;;;;;;;12.57;65.24;102819.19;4990815;28;20518;-46
2022/05/09 06:34:13;;;;;;;8.60;2.70;;;;;;;12.53;64.13;102806.72;4991301;28;20180;-47
2022/05/09 06:36:44;;;;;;;7.10;2.60;;;;;;;12.64;63.81;102816.41;4990145;28;20200;-45
2022/05/09 06:39:11;;;;;;;5.53;2.33;;;;;;;12.97;63.72;102813.19;4991115;28;20176;-45
2022/05/09 06:41:37;;;;;;;7.53;2.65;;;;;;;13.50;63.69;102815.88;4990031;28;20198;-45
2022/05/09 06:44:03;;;;;;;8.95;2.25;;;;;;;13.59;61.52;102813.00;4990801;28;20173;-48
2022/05/09 06:46:28;;;;;;;7.20;2.40;;;;;;;13.60;60.99;102811.22;4991395;28;20219;-49
2022/05/09 06:48:54;;;;;;;6.63;1.92;;;;;;;13.54;60.27;102819.41;4990951;28;20209;-42
2022/05/09 06:51:20;;;;;;;11.48;2.10;;;;;;;13.76;60.70;102807.31;4994126;28;20201;-42
2022/05/09 06:53:45;;;;;;;4.82;2.45;;;;;;;13.64;60.25;102804.84;4994893;28;20185;-46
2022/05/09 06:56:12;;;;;;;10.95;2.50;;;;;;;13.33;60.30;102809.91;4994960;28;20181;-45
2022/05/09 06:58:38;;;;;;;7.50;2.50;;;;;;;13.72;61.19;102810.97;4993822;28;20182;-46
2022/05/09 07:01:15;;;;;;;14.25;2.88;;;;;;;14.29;60.58;102806.22;4993349;28;20684;-46
2022/05/09 07:03:42;;;;;;;6.85;2.33;;;;;;;13.86;59.40;102804.41;4994991;28;20297;-45
2022/05/09 07:06:07;;;;;;;5.38;2.00;;;;;;;14.04;59.63;102811.22;4994920;28;20180;-45
2022/05/09 07:08:33;;;;;;;6.78;2.17;;;;;;;14.11;61.22;102803.00;4994614;28;20205;-44
2022/05/09 07:10:59;;;;;;;6.43;2.13;;;;;;;13.70;60.57;102796.66;4994756;28;20197;-43
2022/05/09 07:13:25;;;;;;;8.27;2.53;;;;;;;14.51;61.32;102795.81;4994494;28;20166;-45
2022/05/09 07:15:50;;;;;;;7.15;2.20;;;;;;;14.64;59.66;102791.94;4994639;28;20201;-44
2022/05/09 07:18:16;;;;;;;7.85;2.28;;;;;;;14.66;60.41;102795.50;4994514;28;20177;-45
2022/05/09 07:20:41;;;;;;;6.15;1.95;;;;;;;14.94;59.58;102794.84;4994439;28;20290;-46
2022/05/09 07:23:10;;;;;;;9.15;1.85;;;;;;;15.24;59.31;102785.06;4994622;28;20529;-47
2022/05/09 07:25:36;;;;;;;4.85;2.00;;;;;;;15.38;58.73;102787.38;4994296;28;20265;-46
2022/05/09 07:28:01;;;;;;;6.75;2.35;;;;;;;15.49;57.94;102789.78;4994485;28;20202;-43
2022/05/09 07:30:28;;;;;;;6.32;2.38;;;;;;;15.90;58.17;102794.06;4993992;28;20198;-44
2022/05/09 07:32:54;;;;;;;5.60;1.90;;;;;;;15.82;57.78;102785.28;4993370;28;20173;-44
2022/05/09 07:35:21;;;;;;;5.28;2.10;;;;;;;16.02;57.55;102776.59;4994296;28;20613;-43
2022/05/09 07:37:47;;;;;;;6.93;2.22;;;;;;;15.78;56.43;102772.78;4994090;28;20236;-44
2022/05/09 07:40:14;;;;;;;7.20;1.98;;;;;;;15.80;58.01;102773.63;4992778;28;20259;-45
2022/05/09 07:42:42;;;;;;;7.15;2.10;;;;;;;16.09;58.35;102763.75;4994175;28;20177;-44
2022/05/09 07:45:10;;;;;;;3.65;1.90;;;;;;;16.40;56.81;102761.88;4993035;28;20177;-43
2022/05/09 07:47:38;;;;;;;6.68;1.88;;;;;;;16.04;56.10;102759.38;4994272;28;20194;-43
2022/05/09 07:50:04;;;;;;;6.28;2.17;;;;;;;16.66;55.80;102758.34;4991225;28;20616;-47
2022/05/09 07:52:30;;;;;;;5.70;1.45;;;;;;;15.97;56.33;102752.38;4994159;28;20169;-45
2022/05/09 07:54:55;;;;;;;4.55;2.03;;;;;;;16.51;56.62;102753.44;4993788;28;20569;-44
2022/05/09 07:57:21;;;;;;;3.40;1.77;;;;;;;16.53;55.56;102745.25;4994438;28;20162;-43
2022/05/09 07:59:46;;;;;;;7.65;2.00;;;;;;;16.20;56.67;102748.09;4993441;28;20283;-44
2022/05/09 08:02:11;;;;;;;7.07;1.70;;;;;;;16.50;56.65;102754.34;4993149;28;20166;-44
2022/05/09 08:04:37;;;;;;;6.03;1.60;;;;;;;16.47;55.53;102741.81;4993557;28;20220;-43
2022/05/09 08:07:02;;;;;;;7.13;1.88;;;;;;;16.32;54.73;102746.84;4993770;28;20244;-44
2022/05/09 08:09:29;;;;;;;8.45;1.77;;;;;;;16.64;55.73;102748.50;4992337;28;20543;-44
2022/05/09 08:11:54;;;;;;;4.00;1.63;;;;;;;16.79;54.97;102748.00;4993423;28;20249;-49
2022/05/09 08:14:20;;;;;;;6.95;2.00;;;;;;;16.44;55.82;102752.75;4992500;28;20382;-42
2022/05/09 08:16:45;;;;;;;4.20;1.92;;;;;;;16.86;57.18;102756.81;4993973;28;20212;-42
2022/05/09 08:19:14;;;;;;;5.07;1.75;;;;;;;17.38;55.07;102751.38;4992730;28;20189;-47
2022/05/09 08:21:40;;;;;;;4.50;1.77;;;;;;;17.32;54.69;102751.59;4993322;28;20204;-44
2022/05/09 08:24:08;;;;;;;3.88;1.95;;;;;;;17.36;53.99;102748.75;4993580;28;20166;-44
2022/05/09 08:26:34;;;;;;;4.75;1.70;;;;;;;17.55;52.93;102735.38;4992124;28;20166;-43
2022/05/09 08:29:00;;;;;;;3.95;1.30;;;;;;;17.50;53.30;102741.00;4992843;28;20248;-44
2022/05/09 08:31:26;;;;;;;4.70;1.55;;;;;;;17.16;53.18;102744.03;4993383;28;20209;-44
2022/05/09 08:33:52;;;;;;;4.63;1.27;;;;;;;16.72;53.38;102753.66;4993162;28;20170;-45
2022/05/09 08:39:05;;;;;;;1.73;1.20;;;;;;;16.39;54.78;102741.16;4992555;28;20652;-45
2022/05/09 08:41:56;;;;;;;3.70;1.48;;;;;;;16.77;54.59;102743.53;4985848;28;20692;-42
2022/05/09 08:44:30;;;;;;;2.88;1.45;;;;;;;16.74;52.89;102740.94;4991506;28;20291;-44
2022/05/09 08:47:08;;;;;;;4.90;1.33;;;;;;;16.41;53.01;102742.00;4974832;28;20193;-45
2022/05/09 08:49:45;;;;;;;4.50;1.48;;;;;;;16.77;52.27;102739.03;4992328;28;20193;-42
2022/05/09 08:52:23;;;;;;;3.40;1.20;;;;;;;17.11;52.01;102737.88;4992481;28;20597;-48
2022/05/09 08:54:50;;;;;;;1.95;1.10;;;;;;;17.01;51.69;102737.34;4992273;28;20324;-46
2022/05/09 08:57:20;;;;;;;3.03;0.98;;;;;;;17.36;50.11;102737.91;4992407;28;20181;-42
2022/05/09 08:59:51;;;;;;;3.15;1.30;;;;;;;17.21;50.06;102736.63;4974689;28;20212;-43
2022/05/09 09:02:29;;;;;;;3.78;1.35;;;;;;;16.67;51.04;102740.28;4992313;28;20170;-44
2022/05/09 09:04:55;;;;;;;3.78;1.13;;;;;;;17.26;49.23;102742.75;4992447;28;20204;-41
2022/05/09 09:07:40;;;;;;;1.90;1.10;;;;;;;16.81;49.82;102742.53;4992200;28;20193;-43
2022/05/09 09:10:25;;;;;;;2.88;1.20;;;;;;;16.89;50.00;102748.59;4991587;28;20248;-43
2022/05/09 09:13:06;;;;;;;4.10;1.25;;;;;;;15.87;52.39;102740.06;4992113;28;20177;-44
2022/05/09 09:16:15;;;;;;;2.17;1.20;;;;;;;16.91;50.32;102735.88;4992187;28;20175;-46
2022/05/09 09:19:05;;;;;;;3.72;1.30;;;;;;;16.74;50.44;102736.41;4992251;28;20204;-44
2022/05/09 09:21:46;;;;;;;3.22;1.35;;;;;;;17.47;50.40;102737.50;4992338;28;20288;-44
2022/05/09 09:24:41;;;;;;;1.85;1.40;;;;;;;17.59;49.72;102725.34;4974788;28;20259;-43
2022/05/09 09:27:31;;;;;;;4.43;1.00;;;;;;;17.14;48.57;102729.63;4992080;28;20631;-43
2022/05/09 09:30:10;;;;;;;3.03;1.50;;;;;;;18.20;49.18;102717.56;4992212;28;20201;-43
2022/05/09 09:32:39;;;;;;;1.65;1.10;;;;;;;17.55;48.62;102723.69;4990742;28;20585;-47
2022/05/09 09:35:13;;;;;;;1.95;1.05;;;;;;;17.27;48.00;102717.47;4991954;28;20184;-44
2022/05/09 09:38:01;;;;;;;2.00;1.13;;;;;;;17.23;48.01;102726.63;4991882;28;20567;-43
2022/05/09 09:40:27;;;;;;;1.40;0.90;;;;;;;17.20;49.17;102717.72;4991841;28;20197;-44
2022/05/09 09:42:57;;;;;;;2.28;1.20;;;;;;;17.25;48.36;102723.84;4974455;28;20236;-44
2022/05/09 09:45:44;;;;;;;1.13;1.02;;;;;;;17.88;47.93;102705.25;4991817;28;20216;-46
2022/05/09 09:48:11;;;;;;;2.25;1.17;;;;;;;17.77;48.08;102716.50;4991821;28;20669;-44
2022/05/09 09:50:55;;;;;;;4.07;1.25;;;;;;;17.76;47.21;102692.16;4991561;28;20285;-46
2022/05/09 09:53:35;;;;;;;2.30;1.50;;;;;;;18.17;47.37;102697.78;4974304;28;20178;-42
2022/05/09 09:56:08;;;;;;;2.58;1.15;;;;;;;17.69;47.64;102700.53;4991902;28;20177;-43
2022/05/09 09:58:35;;;;;;;6.47;1.30;;;;;;;17.90;46.12;102689.81;4991633;28;20165;-45
2022/05/09 10:01:21;;;;;;;3.47;1.45;;;;;;;17.55;46.11;102697.44;4991367;28;20730;-42
2022/05/09 10:04:03;;;;;;;9.35;1.67;;;;;;;17.83;46.39;102688.31;4991598;28;20166;-44
2022/05/09 10:06:29;;;;;;;2.30;1.10;;;;;;;18.03;45.41;102674.81;4991297;28;20219;-44
2022/05/09 10:09:02;;;;;;;2.15;1.02;;;;;;;18.77;43.85;102671.75;4991281;28;20201;-44
2022/05/09 10:11:29;;;;;;;3.88;1.20;;;;;;;18.00;44.05;102672.25;4991224;28;20204;-44
2022/05/09 10:13:58;;;;;;;4.90;1.10;;;;;;;17.66;44.75;102670.81;4991381;28;20180;-47
2022/05/09 10:16:27;;;;;;;2.58;1.27;;;;;;;17.67;43.95;102680.72;4991541;28;20199;-45
2022/05/09 10:18:53;;;;;;;2.90;1.30;;;;;;;18.16;42.43;102679.75;4991144;28;20162;-49
2022/05/09 10:27:38;;;;;;;4.97;1.30;;;;;;;17.58;46.19;102670.25;4991324;28;20209;-45
2022/05/09 10:30:30;;;;;;;3.08;1.50;;;;;;;17.75;46.07;102657.84;4988005;28;20251;-48
2022/05/09 10:33:31;;;;;;;3.22;1.13;;;;;;;17.90;45.04;102658.16;4991213;28;20185;-46
2022/05/09 10:36:01;;;;;;;3.50;1.08;;;;;;;18.38;42.62;102649.91;4990686;28;20176;-49
2022/05/09 10:38:40;;;;;;;2.67;1.27;;;;;;;18.03;43.42;102653.13;4990842;28;20649;-48
2022/05/09 10:41:40;;;;;;;2.97;1.30;;;;;;;18.10;43.18;102651.03;4990573;28;20225;-46
2022/05/09 10:44:28;;;;;;;3.35;1.60;;;;;;;18.35;43.08;102648.22;4990413;28;20170;-48
2022/05/09 10:47:20;;;;;;;2.90;1.50;;;;;;;18.86;41.37;102637.91;4951572;28;20229;-45
2022/05/09 10:50:13;;;;;;;3.63;1.30;;;;;;;18.42;40.72;102628.00;4945726;28;20595;-51
2022/05/09 10:53:10;;;;;;;5.63;1.42;;;;;;;18.50;41.19;102628.56;4990521;28;20220;-46
2022/05/09 10:55:53;;;;;;;2.33;1.50;;;;;;;19.23;39.90;102633.53;4990569;28;20228;-46
2022/05/09 10:58:37;;;;;;;3.20;1.08;;;;;;;18.46;40.46;102629.63;4990712;28;20663;-46
2022/05/09 11:01:08;;;;;;;3.22;1.50;;;;;;;17.58;41.14;102610.63;4990345;28;20295;-46
2022/05/09 11:03:35;;;;;;;4.30;1.42;;;;;;;18.70;39.87;102621.38;4990648;28;20169;-50
2022/05/09 11:06:24;;;;;;;4.40;1.70;;;;;;;18.68;39.68;102613.31;4990430;28;20604;-48
2022/05/09 11:08:59;;;;;;;3.78;1.98;;;;;;;18.57;39.68;102614.72;4990754;28;20379;-48
2022/05/09 11:11:52;;;;;;;3.78;1.70;;;;;;;18.85;39.35;102611.72;4990107;28;20201;-50
2022/05/09 11:14:45;;;;;;;3.83;1.92;;;;;;;19.16;38.88;102603.06;4991012;28;20176;-46
2022/05/09 11:17:30;;;;;;;5.15;2.13;;;;;;;18.70;38.82;102596.94;4990848;28;20186;-47
2022/05/09 11:19:58;;;;;;;9.00;2.10;;;;;;;18.43;39.17;102596.31;4990200;28;20299;-47
2022/05/09 11:22:42;;;;;;;5.93;1.90;;;;;;;19.05;39.23;102598.09;4990599;28;20262;-47
2022/05/09 11:25:21;;;;;;;4.45;1.60;;;;;;;18.43;38.02;102597.22;4990864;28;20213;-47
2022/05/09 11:27:51;;;;;;;6.70;2.22;;;;;;;18.79;38.49;102596.56;4990351;28;20197;-46
2022/05/09 11:30:16;;;;;;;4.40;1.85;;;;;;;18.77;37.16;102598.44;4972753;28;20210;-47
2022/05/09 11:32:46;;;;;;;4.43;1.85;;;;;;;18.88;38.21;102590.72;4973359;28;20232;-47
2022/05/09 11:35:25;;;;;;;3.70;2.20;;;;;;;19.08;38.28;102589.81;4990705;28;20616;-48
2022/05/09 11:38:32;;;;;;;8.55;2.25;;;;;;;18.58;38.94;102587.50;4993128;28;20253;-45
2022/05/09 11:41:05;;;;;;;3.65;1.75;;;;;;;18.66;37.43;102579.91;4993198;28;20791;-48
2022/05/09 11:44:13;;;;;;;4.30;1.90;;;;;;;18.66;36.47;102573.59;4994191;28;20193;-47
2022/05/09 11:47:05;;;;;;;6.88;2.00;;;;;;;18.85;36.26;102566.44;4993732;28;20233;-48
2022/05/09 11:50:05;;;;;;;5.65;1.80;;;;;;;18.78;36.36;102572.19;4989792;28;20237;-47
2022/05/09 11:52:43;;;;;;;5.95;1.88;;;;;;;19.23;36.29;102558.31;4993936;28;20177;-48
2022/05/09 11:55:22;;;;;;;4.60;2.10;;;;;;;19.22;37.78;102545.72;4992316;28;20196;-48
2022/05/09 11:57:55;;;;;;;6.07;2.00;;;;;;;19.52;36.36;102551.47;4993618;28;20484;-46
2022/05/09 12:00:27;;;;;;;7.38;1.80;;;;;;;19.07;38.63;102546.44;4993449;28;20279;-48